createdAt,value
2017-04-20T14:40:22.116Z,22.73
2017-04-20T14:41:32.014Z,21.29
2017-04-20T14:42:41.986Z,20.68
2017-04-20T14:43:52.279Z,20.52
2017-04-20T14:45:02.581Z,20.3
2017-04-20T14:46:13.177Z,20.46
2017-04-20T14:47:23.483Z,20.3
2017-04-20T14:48:33.464Z,20.33
2017-04-20T14:49:43.440Z,20.39
2017-04-20T14:50:53.748Z,20.34
2017-04-20T14:52:04.346Z,20.29
2017-04-20T14:53:14.660Z,20.3
2017-04-20T14:54:25.098Z,20.34
2017-04-20T14:55:35.406Z,20.36
2017-04-20T14:56:45.707Z,20.32
2017-04-20T14:57:55.694Z,20.33
2017-04-20T14:59:06.046Z,20.32
2017-04-20T15:00:16.037Z,20.26
2017-04-20T15:01:26.412Z,20.21
2017-04-20T15:02:37.014Z,20.27
2017-04-20T15:03:47.307Z,20.32
2017-04-20T15:04:57.295Z,20.22
2017-04-20T15:06:06.970Z,20.19
2017-04-20T15:07:17.266Z,20.24
2017-04-20T15:08:27.884Z,20.21
2017-04-20T15:09:37.873Z,20.17
2017-04-20T15:10:48.177Z,20.15
2017-04-20T15:11:58.470Z,20.14
2017-04-20T15:13:08.451Z,20.08
2017-04-20T15:14:19.067Z,20.07
2017-04-20T15:15:29.377Z,20.08
2017-04-20T15:16:39.679Z,20.07
2017-04-20T15:17:50.237Z,20.18
2017-04-20T15:19:00.236Z,20.1
2017-04-20T15:20:10.211Z,20.08
2017-04-20T15:21:20.508Z,20.1
2017-04-20T15:22:30.790Z,20.14
2017-04-20T15:23:41.127Z,20.11
2017-04-20T15:24:51.535Z,20.1
2017-04-20T15:26:02.131Z,20.11
2017-04-20T15:27:12.451Z,20.15
2017-04-20T15:28:22.784Z,20.11
2017-04-20T15:29:33.079Z,20.11
2017-04-20T15:30:43.075Z,20.1
2017-04-20T15:31:53.377Z,20.11
2017-04-20T15:33:03.691Z,20.14
2017-04-20T15:34:13.990Z,20.14
2017-04-20T15:35:24.305Z,20.17
2017-04-20T15:36:34.291Z,20.11
2017-04-20T15:37:44.995Z,20.11
2017-04-20T15:40:18.187Z,20.12
2017-04-20T15:42:31.771Z,20.04
2017-04-20T15:43:42.148Z,20.11
2017-04-20T15:44:52.556Z,20.12
2017-04-20T15:46:02.961Z,20.1
2017-04-20T15:47:13.041Z,20.12
2017-04-20T15:48:23.454Z,20.08
2017-04-20T15:49:33.847Z,20.12
2017-04-20T15:50:44.260Z,20.1
2017-04-20T15:51:54.662Z,20.11
2017-04-20T15:53:04.748Z,20.04
2017-04-20T15:54:15.155Z,20.07
2017-04-20T15:55:25.859Z,20.04
2017-04-20T15:56:35.660Z,20.02
2017-04-20T15:57:45.448Z,19.96
2017-04-20T15:58:55.847Z,19.92
2017-04-20T16:00:05.611Z,19.97
2017-04-20T16:01:16.354Z,20
2017-04-20T16:02:26.752Z,19.97
2017-04-20T16:03:37.155Z,19.96
2017-04-20T16:04:47.562Z,19.97
2017-04-20T16:05:57.658Z,19.94
2017-04-20T16:07:08.359Z,19.94
2017-04-20T16:08:18.782Z,19.97
2017-04-20T16:09:28.910Z,19.96
2017-04-20T16:10:39.328Z,19.97
2017-04-20T16:11:49.754Z,20.02
2017-04-20T16:13:00.460Z,19.9
2017-04-20T16:14:10.573Z,19.9
2017-04-20T16:15:21.223Z,19.92
2017-04-20T16:16:31.638Z,19.85
2017-04-20T16:17:41.772Z,19.85
2017-04-20T16:18:52.765Z,19.85
2017-04-20T16:20:02.868Z,19.85
2017-04-20T16:21:13.287Z,19.92
2017-04-20T16:22:23.691Z,19.96
2017-04-20T16:23:34.116Z,19.87
2017-04-20T16:24:44.882Z,19.89
2017-04-20T16:25:55.295Z,19.92
2017-04-20T16:27:05.708Z,19.84
2017-04-20T16:28:15.815Z,19.77
2017-04-20T16:29:25.919Z,19.79
2017-04-20T16:30:36.306Z,19.79
2017-04-20T16:31:46.740Z,19.84
2017-04-20T16:32:57.180Z,19.81
2017-04-20T16:34:07.590Z,19.78
2017-04-20T16:35:18.017Z,19.79
2017-04-20T16:36:28.751Z,19.85
2017-04-20T16:37:38.855Z,19.75
2017-04-20T16:38:48.654Z,19.81
2017-04-20T16:39:59.076Z,19.7
2017-04-20T16:41:09.164Z,19.67
2017-04-20T16:42:19.873Z,19.74
2017-04-20T16:43:29.990Z,19.64
2017-04-20T16:44:40.392Z,19.66
2017-04-20T16:45:50.841Z,19.71
2017-04-20T16:47:01.284Z,19.63
2017-04-20T16:48:11.991Z,19.71
2017-04-20T16:49:22.104Z,19.66
2017-04-20T16:50:32.544Z,19.7
2017-04-20T16:51:42.982Z,19.67
2017-04-20T16:52:53.063Z,19.57
2017-04-20T16:54:03.804Z,19.63
2017-04-20T16:55:14.051Z,19.57
2017-04-20T16:56:24.409Z,19.57
2017-04-20T16:57:34.686Z,19.62
2017-04-20T16:58:44.716Z,19.57
2017-04-20T16:59:55.343Z,19.57
2017-04-20T17:01:05.342Z,19.56
2017-04-20T17:02:15.792Z,19.57
2017-04-20T17:03:25.901Z,19.52
2017-04-20T17:04:36.028Z,19.56
2017-04-20T17:05:46.436Z,19.53
2017-04-20T17:06:56.575Z,19.66
2017-04-20T17:08:07.009Z,19.56
2017-04-20T17:09:17.523Z,19.57
2017-04-20T17:10:27.321Z,19.39
2017-04-20T17:11:37.813Z,19.53
2017-04-20T17:12:48.259Z,19.57
2017-04-20T17:13:58.384Z,19.53
2017-04-20T17:15:08.508Z,19.48
2017-04-20T17:16:18.936Z,19.47
2017-04-20T17:17:29.351Z,19.34
2017-04-20T17:18:39.503Z,19.38
2017-04-20T17:19:49.953Z,19.44
2017-04-20T17:21:00.390Z,19.35
2017-04-20T17:22:10.888Z,19.3
2017-04-20T17:23:21.623Z,19.23
2017-04-20T17:24:32.074Z,19.27
2017-04-20T17:25:42.247Z,19.29
2017-04-20T17:26:52.374Z,19.19
2017-04-20T17:28:02.817Z,19.29
2017-04-20T17:29:13.276Z,19.29
2017-04-20T17:30:23.729Z,19.2
2017-04-20T17:31:33.852Z,19.22
2017-04-20T17:32:43.976Z,19.16
2017-04-20T17:33:54.114Z,19.22
2017-04-20T17:35:04.840Z,19.17
2017-04-20T17:36:15.305Z,19.19
2017-04-20T17:37:25.750Z,19.15
2017-04-20T17:38:36.233Z,19.19
2017-04-20T17:39:46.830Z,19.19
2017-04-20T17:40:57.399Z,19.15
2017-04-20T17:42:07.904Z,19.15
2017-04-20T17:43:18.516Z,19.07
2017-04-20T17:44:28.965Z,19.19
2017-04-20T17:45:39.091Z,19.2
2017-04-20T17:46:49.856Z,19.01
2017-04-20T17:47:59.973Z,19.17
2017-04-20T17:49:10.421Z,19.19
2017-04-20T17:50:20.850Z,19.07
2017-04-20T17:51:31.316Z,19.04
2017-04-20T17:52:42.070Z,19.17
2017-04-20T17:53:52.208Z,19.07
2017-04-20T17:55:02.649Z,19.07
2017-04-20T17:56:12.812Z,19.07
2017-04-20T17:57:23.269Z,19.04
2017-04-20T17:58:34.009Z,19.12
2017-04-20T17:59:44.125Z,19.08
2017-04-20T18:00:54.262Z,19.04
2017-04-20T18:02:04.726Z,19.07
2017-04-20T18:03:15.165Z,19.08
2017-04-20T18:04:25.276Z,19.05
2017-04-20T18:05:35.715Z,19.08
2017-04-20T18:06:45.503Z,18.96
2017-04-20T18:07:55.945Z,19.04
2017-04-20T18:09:06.391Z,19.05
2017-04-20T18:10:16.818Z,19.05
2017-04-20T18:11:27.295Z,19.04
2017-04-20T18:12:37.472Z,19
2017-04-20T18:13:47.623Z,18.97
2017-04-20T18:14:58.083Z,19
2017-04-20T18:16:08.530Z,18.89
2017-04-20T18:17:19.063Z,18.96
2017-04-20T18:18:29.836Z,18.97
2017-04-20T18:19:40.332Z,18.88
2017-04-20T18:20:50.461Z,18.88
2017-04-20T18:22:01.259Z,18.91
2017-04-20T18:23:11.718Z,18.85
2017-04-20T18:24:21.861Z,18.85
2017-04-20T18:25:31.998Z,18.89
2017-04-20T18:26:42.449Z,18.86
2017-04-20T18:27:53.232Z,18.85
2017-04-20T18:29:03.722Z,18.83
2017-04-20T18:30:13.869Z,18.76
2017-04-20T18:31:24.021Z,18.76
2017-04-20T18:32:34.544Z,18.73
2017-04-20T18:33:45.316Z,18.83
2017-04-20T18:34:55.800Z,18.76
2017-04-20T18:36:06.279Z,18.68
2017-04-20T18:37:16.767Z,18.76
2017-04-20T18:38:27.260Z,18.73
2017-04-20T18:39:38.037Z,18.7
2017-04-20T18:40:48.194Z,18.74
2017-04-20T18:41:58.331Z,18.74
2017-04-20T18:43:08.813Z,18.74
2017-04-20T18:44:19.324Z,18.71
2017-04-20T18:45:30.126Z,18.7
2017-04-20T18:46:40.855Z,18.68
2017-04-20T18:47:50.983Z,18.66
2017-04-20T18:49:01.588Z,18.73
2017-04-20T18:50:11.745Z,18.7
2017-04-20T18:51:22.195Z,18.7
2017-04-20T18:52:32.375Z,18.63
2017-04-20T18:53:42.855Z,18.61
2017-04-20T18:54:53.327Z,18.7
2017-04-20T18:56:03.814Z,18.67
2017-04-20T18:57:14.584Z,18.63
2017-04-20T18:58:25.095Z,18.57
2017-04-20T18:59:35.264Z,18.58
2017-04-20T19:00:45.776Z,18.58
2017-04-20T19:01:56.271Z,18.61
2017-04-20T19:03:06.433Z,18.64
2017-04-20T19:04:16.606Z,18.6
2017-04-20T19:05:27.080Z,18.53
2017-04-20T19:06:37.272Z,18.6
2017-04-20T19:07:47.744Z,18.58
2017-04-20T19:08:57.904Z,18.57
2017-04-20T19:10:08.049Z,18.49
2017-04-20T19:11:18.250Z,18.57
2017-04-20T19:12:28.757Z,18.57
2017-04-20T19:13:39.255Z,18.51
2017-04-20T19:14:49.734Z,18.49
2017-04-20T19:16:00.225Z,18.53
2017-04-20T19:17:10.703Z,18.46
2017-04-20T19:18:21.259Z,18.46
2017-04-20T19:19:31.693Z,18.49
2017-04-20T19:20:42.674Z,18.48
2017-04-20T19:21:52.844Z,18.48
2017-04-20T19:23:03.288Z,18.51
2017-04-20T19:24:13.477Z,18.53
2017-04-20T19:25:24.002Z,18.48
2017-04-20T19:26:34.803Z,18.42
2017-04-20T19:27:44.652Z,18.53
2017-04-20T19:28:54.808Z,18.43
2017-04-20T19:30:04.979Z,18.45
2017-04-20T19:31:15.541Z,18.51
2017-04-20T19:32:26.349Z,18.34
2017-04-20T19:33:36.855Z,18.48
2017-04-20T19:34:47.376Z,18.34
2017-04-20T19:35:57.580Z,18.33
2017-04-20T19:37:08.277Z,18.39
2017-04-20T19:38:18.402Z,18.41
2017-04-20T19:39:28.968Z,18.34
2017-04-20T19:40:39.454Z,18.36
2017-04-20T19:41:49.941Z,18.43
2017-04-20T19:42:59.765Z,18.45
2017-04-20T19:44:10.529Z,18.43
2017-04-20T19:45:21.034Z,18.41
2017-04-20T19:46:31.522Z,18.45
2017-04-20T19:47:41.920Z,18.36
2017-04-20T19:48:52.088Z,18.39
2017-04-20T19:50:02.555Z,18.36
2017-04-20T19:51:13.237Z,18.39
2017-04-20T19:52:23.734Z,18.39
2017-04-20T19:53:34.200Z,18.43
2017-04-20T19:54:44.223Z,18.37
2017-04-20T19:55:54.670Z,18.36
2017-04-20T19:57:05.141Z,18.39
2017-04-20T19:58:15.287Z,18.31
2017-04-20T19:59:25.766Z,18.43
2017-04-20T20:00:36.228Z,18.39
2017-04-20T20:01:46.982Z,18.39
2017-04-20T20:02:57.139Z,18.34
2017-04-20T20:04:07.614Z,18.34
2017-04-20T20:05:18.077Z,18.3
2017-04-20T20:06:28.216Z,18.37
2017-04-20T20:07:38.662Z,18.37
2017-04-20T20:08:49.385Z,18.36
2017-04-20T20:09:59.515Z,18.27
2017-04-20T20:11:09.347Z,18.31
2017-04-20T20:12:19.809Z,18.28
2017-04-20T20:13:30.577Z,18.3
2017-04-20T20:14:40.392Z,18.37
2017-04-20T20:15:50.871Z,18.36
2017-04-20T20:17:01.352Z,18.36
2017-04-20T20:18:11.474Z,18.36
2017-04-20T20:19:21.915Z,18.36
2017-04-20T20:20:32.040Z,18.34
2017-04-20T20:21:42.789Z,18.27
2017-04-20T20:22:53.299Z,18.36
2017-04-20T20:24:03.995Z,18.27
2017-04-20T20:25:14.827Z,18.33
2017-04-20T20:26:25.352Z,18.36
2017-04-20T20:27:35.487Z,18.34
2017-04-20T20:28:45.945Z,18.37
2017-04-20T20:29:56.386Z,18.34
2017-04-20T20:31:07.171Z,18.3
2017-04-20T20:32:17.641Z,18.23
2017-04-20T20:33:28.054Z,18.21
2017-04-20T20:34:38.183Z,18.27
2017-04-20T20:35:48.604Z,18.21
2017-04-20T20:36:59.356Z,18.23
2017-04-20T20:38:09.777Z,18.26
2017-04-20T20:39:20.220Z,18.21
2017-04-20T20:40:30.654Z,18.21
2017-04-20T20:41:41.093Z,18.27
2017-04-20T20:42:51.199Z,18.23
2017-04-20T20:44:01.345Z,18.23
2017-04-20T20:45:11.457Z,18.24
2017-04-20T20:46:21.260Z,18.31
2017-04-20T20:47:31.354Z,18.23
2017-04-20T20:48:42.087Z,18.24
2017-04-20T20:49:52.511Z,18.21
2017-04-20T20:51:02.619Z,18.34
2017-04-20T20:52:13.026Z,18.33
2017-04-20T20:53:23.137Z,18.23
2017-04-20T20:54:33.545Z,18.24
2017-04-20T20:55:43.961Z,18.27
2017-04-20T20:56:54.731Z,18.24
2017-04-20T20:58:04.843Z,18.27
2017-04-20T20:59:15.092Z,18.23
2017-04-20T21:00:25.484Z,18.3
2017-04-20T21:01:35.624Z,18.19
2017-04-20T21:02:46.046Z,18.21
2017-04-20T21:03:55.830Z,18.21
2017-04-20T21:05:05.937Z,18.3
2017-04-20T21:06:16.682Z,18.28
2017-04-20T21:07:26.766Z,18.23
2017-04-20T21:08:37.183Z,18.28
2017-04-20T21:09:46.977Z,18.27
2017-04-20T21:10:56.740Z,18.26
2017-04-20T21:12:07.142Z,18.18
2017-04-20T21:13:17.241Z,18.16
2017-04-20T21:14:27.344Z,18.24
2017-04-20T21:15:37.747Z,18.21
2017-04-20T21:16:47.560Z,18.21
2017-04-20T21:17:57.948Z,18.27
2017-04-20T21:19:07.710Z,18.27
2017-04-20T21:20:17.791Z,18.28
2017-04-20T21:21:28.219Z,18.23
2017-04-20T21:22:38.614Z,18.23
2017-04-20T21:23:49.307Z,18.23
2017-04-20T21:24:59.807Z,18.28
2017-04-20T21:26:09.899Z,18.19
2017-04-20T21:27:19.970Z,18.27
2017-04-20T21:28:30.375Z,18.27
2017-04-20T21:29:40.772Z,18.27
2017-04-20T21:30:51.166Z,18.3
2017-04-20T21:32:00.940Z,18.21
2017-04-20T21:33:11.025Z,18.26
2017-04-20T21:34:21.090Z,18.21
2017-04-20T21:35:31.771Z,18.26
2017-04-20T21:36:42.163Z,18.19
2017-04-20T21:37:52.538Z,18.12
2017-04-20T21:39:02.646Z,18.24
2017-04-20T21:40:12.076Z,18.24
2017-04-20T21:41:22.776Z,18.13
2017-04-20T21:42:32.532Z,18.11
2017-04-20T21:43:42.287Z,18.28
2017-04-20T21:44:52.923Z,18.27
2017-04-20T21:46:03.310Z,18.27
2017-04-20T21:47:13.668Z,18.24
2017-04-20T21:48:23.730Z,18.15
2017-04-20T21:49:34.112Z,18.08
2017-04-20T21:50:44.497Z,18.19
2017-04-20T21:51:54.554Z,18.15
2017-04-20T21:53:05.245Z,18.23
2017-04-20T21:54:15.627Z,18.06
2017-04-20T21:55:26.021Z,18.15
2017-04-20T21:56:36.076Z,18.23
2017-04-20T21:57:46.457Z,18.23
2017-04-20T21:58:56.817Z,18.24
2017-04-20T22:00:07.208Z,18.15
2017-04-20T22:01:17.579Z,18.11
2017-04-20T22:02:27.964Z,18.23
2017-04-20T22:03:38.349Z,18.12
2017-04-20T22:04:49.033Z,18.13
2017-04-20T22:05:59.302Z,18.26
2017-04-20T22:07:09.795Z,18.27
2017-04-20T22:08:20.257Z,18.21
2017-04-20T22:09:29.996Z,18.21
2017-04-20T22:10:40.671Z,18.19
2017-04-20T22:11:50.727Z,18.21
2017-04-20T22:13:01.120Z,18.24
2017-04-20T22:14:11.497Z,18.18
2017-04-20T22:15:21.878Z,18.23
2017-04-20T22:16:32.569Z,18.21
2017-04-20T22:17:42.625Z,18.24
2017-04-20T22:18:52.678Z,18.21
2017-04-20T22:20:02.736Z,18.24
2017-04-20T22:21:12.793Z,18.21
2017-04-20T22:22:23.157Z,18.21
2017-04-20T22:23:33.563Z,18.11
2017-04-20T22:24:43.972Z,18.11
2017-04-20T22:25:54.030Z,18.19
2017-04-20T22:27:04.414Z,18.23
2017-04-20T22:28:14.134Z,18.06
2017-04-20T22:29:24.505Z,18.13
2017-04-20T22:30:34.881Z,18.12
2017-04-20T22:31:44.937Z,18.15
2017-04-20T22:32:54.682Z,18.11
2017-04-20T22:34:04.730Z,18.09
2017-04-20T22:35:15.105Z,18.21
2017-04-20T22:36:25.484Z,18.23
2017-04-20T22:37:35.864Z,18.11
2017-04-20T22:38:46.235Z,18.13
2017-04-20T22:39:56.910Z,18.13
2017-04-20T22:41:06.648Z,18.15
2017-04-20T22:42:17.213Z,18.16
2017-04-20T22:43:27.637Z,18.19
2017-04-20T22:44:38.039Z,18.16
2017-04-20T22:45:48.463Z,18.13
2017-04-20T22:46:58.837Z,18.12
2017-04-20T22:48:09.218Z,18.08
2017-04-20T22:49:19.587Z,18.08
2017-04-20T22:50:29.653Z,18.11
2017-04-20T22:51:40.339Z,18.12
2017-04-20T22:52:50.728Z,18.13
2017-04-20T22:54:01.138Z,18.11
2017-04-20T22:55:11.203Z,18.15
2017-04-20T22:56:20.955Z,18.09
2017-04-20T22:57:31.635Z,18.12
2017-04-20T22:58:42.010Z,18.12
2017-04-20T22:59:52.393Z,18.12
2017-04-20T23:01:02.470Z,18.13
2017-04-20T23:02:12.843Z,18.13
2017-04-20T23:03:23.530Z,18.09
2017-04-20T23:04:33.909Z,18.08
2017-04-20T23:05:44.296Z,18.05
2017-04-20T23:06:54.674Z,18.08
2017-04-20T23:08:05.056Z,18.09
2017-04-20T23:09:15.730Z,18.16
2017-04-20T23:10:26.107Z,18.08
2017-04-20T23:11:35.854Z,18.05
2017-04-20T23:12:46.245Z,18.12
2017-04-20T23:13:56.622Z,18.13
2017-04-20T23:15:07.365Z,18.12
2017-04-20T23:16:17.745Z,18.13
2017-04-20T23:17:27.832Z,18.13
2017-04-20T23:18:38.212Z,18.12
2017-04-20T23:19:48.597Z,18.13
2017-04-20T23:20:59.288Z,18.06
2017-04-20T23:22:09.661Z,18.08
2017-04-20T23:23:20.047Z,18.13
2017-04-20T23:24:30.107Z,18.11
2017-04-20T23:25:40.496Z,18.16
2017-04-20T23:26:50.859Z,18.12
2017-04-20T23:27:59.958Z,18.11
2017-04-20T23:29:10.340Z,18.09
2017-04-20T23:30:20.439Z,18.15
2017-04-20T23:31:29.858Z,18.06
2017-04-20T23:32:40.236Z,18.11
2017-04-20T23:33:50.617Z,18.06
2017-04-20T23:35:00.669Z,18.09
2017-04-20T23:36:10.729Z,18.12
2017-04-20T23:37:20.173Z,18.09
2017-04-20T23:38:30.876Z,18.02
2017-04-20T23:39:40.939Z,17.94
2017-04-20T23:40:51.314Z,17.98
2017-04-20T23:42:01.061Z,18.11
2017-04-20T23:43:11.117Z,18.05
2017-04-20T23:44:21.484Z,18.13
2017-04-20T23:45:31.856Z,18.12
2017-04-20T23:46:42.235Z,18.06
2017-04-20T23:47:52.619Z,18.18
2017-04-20T23:49:03.001Z,18.11
2017-04-20T23:50:13.442Z,18.08
2017-04-20T23:51:23.507Z,18.09
2017-04-20T23:52:33.930Z,18.13
2017-04-20T23:53:44.005Z,18.15
2017-04-20T23:54:54.084Z,18.18
2017-04-20T23:56:04.769Z,18.11
2017-04-20T23:57:14.827Z,18.09
2017-04-20T23:58:24.903Z,18.08
2017-04-20T23:59:34.973Z,18.15
